sensor_id;sensor_type;location;lat;lon;timestamp;P1;durP1;ratioP1;P2;durP2;ratioP2
21681;SDS011;11002;48.256;10.084;2023-02-21T00:00:08;8.55;;;6.10;;
21681;SDS011;11002;48.256;10.084;2023-02-21T00:02:53;14.93;;;6.78;;
21681;SDS011;11002;48.256;10.084;2023-02-21T00:05:38;9.23;;;6.65;;
21681;SDS011;11002;48.256;10.084;2023-02-21T00:11:07;9.40;;;5.78;;
21681;SDS011;11002;48.256;10.084;2023-02-21T00:13:53;12.07;;;6.57;;
21681;SDS011;11002;48.256;10.084;2023-02-21T00:16:38;8.77;;;6.45;;
21681;SDS011;11002;48.256;10.084;2023-02-21T00:19:23;9.13;;;6.22;;
21681;SDS011;11002;48.256;10.084;2023-02-21T00:22:07;13.23;;;6.55;;
21681;SDS011;11002;48.256;10.084;2023-02-21T00:24:52;9.13;;;6.50;;
21681;SDS011;11002;48.256;10.084;2023-02-21T00:27:37;7.60;;;6.15;;
21681;SDS011;11002;48.256;10.084;2023-02-21T00:30:23;10.32;;;6.78;;
21681;SDS011;11002;48.256;10.084;2023-02-21T00:33:08;10.93;;;6.47;;
21681;SDS011;11002;48.256;10.084;2023-02-21T00:35:52;13.35;;;7.40;;
21681;SDS011;11002;48.256;10.084;2023-02-21T00:38:38;12.10;;;6.75;;
21681;SDS011;11002;48.256;10.084;2023-02-21T00:41:23;10.18;;;6.82;;
21681;SDS011;11002;48.256;10.084;2023-02-21T00:44:08;11.68;;;7.13;;
21681;SDS011;11002;48.256;10.084;2023-02-21T00:46:57;15.02;;;7.50;;
21681;SDS011;11002;48.256;10.084;2023-02-21T00:49:41;10.38;;;6.88;;
21681;SDS011;11002;48.256;10.084;2023-02-21T00:52:26;10.20;;;6.55;;
21681;SDS011;11002;48.256;10.084;2023-02-21T00:55:12;14.15;;;7.13;;
21681;SDS011;11002;48.256;10.084;2023-02-21T00:57:57;13.15;;;7.30;;
21681;SDS011;11002;48.256;10.084;2023-02-21T01:00:42;10.10;;;7.13;;
21681;SDS011;11002;48.256;10.084;2023-02-21T01:03:28;11.10;;;7.03;;
21681;SDS011;11002;48.256;10.084;2023-02-21T01:06:12;11.07;;;7.45;;
21681;SDS011;11002;48.256;10.084;2023-02-21T01:08:57;13.00;;;7.78;;
21681;SDS011;11002;48.256;10.084;2023-02-21T01:14:26;12.90;;;8.60;;
21681;SDS011;11002;48.256;10.084;2023-02-21T01:17:12;10.88;;;7.78;;
21681;SDS011;11002;48.256;10.084;2023-02-21T01:19:58;15.70;;;7.75;;
21681;SDS011;11002;48.256;10.084;2023-02-21T01:22:44;14.68;;;7.32;;
21681;SDS011;11002;48.256;10.084;2023-02-21T01:25:29;12.95;;;7.72;;
21681;SDS011;11002;48.256;10.084;2023-02-21T01:28:14;10.18;;;6.95;;
21681;SDS011;11002;48.256;10.084;2023-02-21T01:31:01;14.48;;;7.05;;
21681;SDS011;11002;48.256;10.084;2023-02-21T01:33:46;11.75;;;7.32;;
21681;SDS011;11002;48.256;10.084;2023-02-21T01:36:32;10.75;;;7.68;;
21681;SDS011;11002;48.256;10.084;2023-02-21T01:39:17;11.38;;;7.25;;
21681;SDS011;11002;48.256;10.084;2023-02-21T01:42:02;10.77;;;6.05;;
21681;SDS011;11002;48.256;10.084;2023-02-21T01:44:47;11.73;;;6.40;;
21681;SDS011;11002;48.256;10.084;2023-02-21T01:47:52;13.15;;;7.40;;
21681;SDS011;11002;48.256;10.084;2023-02-21T01:50:37;15.45;;;6.90;;
21681;SDS011;11002;48.256;10.084;2023-02-21T01:53:23;10.57;;;7.55;;
21681;SDS011;11002;48.256;10.084;2023-02-21T01:56:09;10.50;;;6.80;;
21681;SDS011;11002;48.256;10.084;2023-02-21T01:58:56;11.43;;;6.47;;
21681;SDS011;11002;48.256;10.084;2023-02-21T02:01:44;9.68;;;6.28;;
21681;SDS011;11002;48.256;10.084;2023-02-21T02:04:37;12.15;;;6.13;;
21681;SDS011;11002;48.256;10.084;2023-02-21T02:07:23;14.65;;;6.72;;
21681;SDS011;11002;48.256;10.084;2023-02-21T02:10:11;10.45;;;6.43;;
21681;SDS011;11002;48.256;10.084;2023-02-21T02:13:09;8.40;;;6.53;;
21681;SDS011;11002;48.256;10.084;2023-02-21T02:16:11;12.30;;;7.38;;
21681;SDS011;11002;48.256;10.084;2023-02-21T02:18:51;10.27;;;7.20;;
21681;SDS011;11002;48.256;10.084;2023-02-21T02:21:55;10.38;;;7.15;;
21681;SDS011;11002;48.256;10.084;2023-02-21T02:24:44;8.88;;;6.70;;
21681;SDS011;11002;48.256;10.084;2023-02-21T02:30:44;10.85;;;6.93;;
21681;SDS011;11002;48.256;10.084;2023-02-21T02:33:36;10.90;;;7.38;;
21681;SDS011;11002;48.256;10.084;2023-02-21T02:36:29;12.20;;;6.43;;
21681;SDS011;11002;48.256;10.084;2023-02-21T02:39:02;10.68;;;6.47;;
21681;SDS011;11002;48.256;10.084;2023-02-21T02:41:41;11.30;;;7.03;;
21681;SDS011;11002;48.256;10.084;2023-02-21T02:44:17;9.30;;;6.82;;
21681;SDS011;11002;48.256;10.084;2023-02-21T02:46:48;9.75;;;6.00;;
21681;SDS011;11002;48.256;10.084;2023-02-21T02:49:18;9.25;;;6.78;;
21681;SDS011;11002;48.256;10.084;2023-02-21T02:51:49;11.25;;;6.90;;
21681;SDS011;11002;48.256;10.084;2023-02-21T02:54:22;12.02;;;6.25;;
21681;SDS011;11002;48.256;10.084;2023-02-21T02:56:49;13.43;;;6.43;;
21681;SDS011;11002;48.256;10.084;2023-02-21T02:59:18;8.93;;;6.28;;
21681;SDS011;11002;48.256;10.084;2023-02-21T03:02:04;13.93;;;6.60;;
21681;SDS011;11002;48.256;10.084;2023-02-21T03:05:02;11.88;;;7.30;;
21681;SDS011;11002;48.256;10.084;2023-02-21T03:07:45;11.70;;;6.70;;
21681;SDS011;11002;48.256;10.084;2023-02-21T03:10:20;9.68;;;6.25;;
21681;SDS011;11002;48.256;10.084;2023-02-21T03:12:59;10.73;;;6.32;;
21681;SDS011;11002;48.256;10.084;2023-02-21T03:15:34;11.20;;;7.25;;
21681;SDS011;11002;48.256;10.084;2023-02-21T03:18:12;8.60;;;6.25;;
21681;SDS011;11002;48.256;10.084;2023-02-21T03:20:42;8.95;;;6.22;;
21681;SDS011;11002;48.256;10.084;2023-02-21T03:23:13;12.25;;;6.65;;
21681;SDS011;11002;48.256;10.084;2023-02-21T03:25:44;10.75;;;7.10;;
21681;SDS011;11002;48.256;10.084;2023-02-21T03:28:14;12.57;;;6.75;;
21681;SDS011;11002;48.256;10.084;2023-02-21T03:30:43;11.93;;;7.22;;
21681;SDS011;11002;48.256;10.084;2023-02-21T03:33:14;13.60;;;7.03;;
21681;SDS011;11002;48.256;10.084;2023-02-21T03:35:41;19.35;;;7.25;;
21681;SDS011;11002;48.256;10.084;2023-02-21T03:38:10;13.35;;;7.25;;
21681;SDS011;11002;48.256;10.084;2023-02-21T03:40:38;11.30;;;6.60;;
21681;SDS011;11002;48.256;10.084;2023-02-21T03:43:06;9.32;;;6.22;;
21681;SDS011;11002;48.256;10.084;2023-02-21T03:45:56;10.18;;;6.55;;
21681;SDS011;11002;48.256;10.084;2023-02-21T03:48:26;11.57;;;6.53;;
21681;SDS011;11002;48.256;10.084;2023-02-21T03:50:55;16.00;;;7.57;;
21681;SDS011;11002;48.256;10.084;2023-02-21T03:53:27;13.77;;;6.78;;
21681;SDS011;11002;48.256;10.084;2023-02-21T03:55:56;11.35;;;6.55;;
21681;SDS011;11002;48.256;10.084;2023-02-21T03:58:34;10.20;;;6.05;;
21681;SDS011;11002;48.256;10.084;2023-02-21T04:01:01;10.68;;;6.30;;
21681;SDS011;11002;48.256;10.084;2023-02-21T04:03:30;10.25;;;6.63;;
21681;SDS011;11002;48.256;10.084;2023-02-21T04:06:01;11.35;;;6.40;;
21681;SDS011;11002;48.256;10.084;2023-02-21T04:08:30;11.80;;;7.00;;
21681;SDS011;11002;48.256;10.084;2023-02-21T04:10:58;13.32;;;7.28;;
21681;SDS011;11002;48.256;10.084;2023-02-21T04:13:29;12.00;;;7.50;;
21681;SDS011;11002;48.256;10.084;2023-02-21T04:15:57;11.00;;;7.30;;
21681;SDS011;11002;48.256;10.084;2023-02-21T04:18:25;16.98;;;7.72;;
21681;SDS011;11002;48.256;10.084;2023-02-21T04:20:56;11.60;;;7.40;;
21681;SDS011;11002;48.256;10.084;2023-02-21T04:23:23;14.75;;;8.15;;
21681;SDS011;11002;48.256;10.084;2023-02-21T04:25:51;13.02;;;8.38;;
21681;SDS011;11002;48.256;10.084;2023-02-21T04:28:26;11.00;;;7.88;;
21681;SDS011;11002;48.256;10.084;2023-02-21T04:30:54;12.95;;;7.95;;
21681;SDS011;11002;48.256;10.084;2023-02-21T04:33:21;9.23;;;6.40;;
21681;SDS011;11002;48.256;10.084;2023-02-21T04:35:49;11.30;;;7.13;;
21681;SDS011;11002;48.256;10.084;2023-02-21T04:38:33;11.98;;;6.13;;
21681;SDS011;11002;48.256;10.084;2023-02-21T04:41:02;11.45;;;7.22;;
21681;SDS011;11002;48.256;10.084;2023-02-21T04:43:31;9.57;;;6.90;;
21681;SDS011;11002;48.256;10.084;2023-02-21T04:45:59;11.95;;;6.78;;
21681;SDS011;11002;48.256;10.084;2023-02-21T04:48:26;10.48;;;7.47;;
21681;SDS011;11002;48.256;10.084;2023-02-21T04:50:54;12.38;;;7.43;;
21681;SDS011;11002;48.256;10.084;2023-02-21T04:53:21;11.48;;;7.45;;
21681;SDS011;11002;48.256;10.084;2023-02-21T04:55:48;14.63;;;7.07;;
21681;SDS011;11002;48.256;10.084;2023-02-21T04:58:16;13.38;;;7.95;;
21681;SDS011;11002;48.256;10.084;2023-02-21T05:00:44;10.73;;;7.45;;
21681;SDS011;11002;48.256;10.084;2023-02-21T05:03:12;15.27;;;7.57;;
21681;SDS011;11002;48.256;10.084;2023-02-21T05:05:39;10.15;;;7.60;;
21681;SDS011;11002;48.256;10.084;2023-02-21T05:08:06;11.70;;;7.50;;
21681;SDS011;11002;48.256;10.084;2023-02-21T05:10:33;11.73;;;7.85;;
21681;SDS011;11002;48.256;10.084;2023-02-21T05:13:01;14.35;;;7.40;;
21681;SDS011;11002;48.256;10.084;2023-02-21T05:15:28;12.68;;;7.40;;
21681;SDS011;11002;48.256;10.084;2023-02-21T05:17:57;12.43;;;7.50;;
21681;SDS011;11002;48.256;10.084;2023-02-21T05:20:24;11.40;;;8.18;;
21681;SDS011;11002;48.256;10.084;2023-02-21T05:22:51;16.42;;;9.82;;
21681;SDS011;11002;48.256;10.084;2023-02-21T05:25:19;14.57;;;8.65;;
21681;SDS011;11002;48.256;10.084;2023-02-21T05:27:49;13.23;;;7.45;;
21681;SDS011;11002;48.256;10.084;2023-02-21T05:30:18;10.95;;;7.32;;
21681;SDS011;11002;48.256;10.084;2023-02-21T05:32:48;10.65;;;7.13;;
21681;SDS011;11002;48.256;10.084;2023-02-21T05:35:17;12.27;;;7.45;;
21681;SDS011;11002;48.256;10.084;2023-02-21T05:37:44;15.07;;;7.70;;
21681;SDS011;11002;48.256;10.084;2023-02-21T05:40:12;11.32;;;7.78;;
21681;SDS011;11002;48.256;10.084;2023-02-21T05:42:43;11.52;;;6.93;;
21681;SDS011;11002;48.256;10.084;2023-02-21T05:45:10;11.90;;;7.22;;
21681;SDS011;11002;48.256;10.084;2023-02-21T05:47:37;10.43;;;6.50;;
21681;SDS011;11002;48.256;10.084;2023-02-21T05:50:05;9.68;;;7.10;;
21681;SDS011;11002;48.256;10.084;2023-02-21T05:52:34;11.85;;;7.28;;
21681;SDS011;11002;48.256;10.084;2023-02-21T05:55:01;12.70;;;7.68;;
21681;SDS011;11002;48.256;10.084;2023-02-21T05:57:29;11.05;;;7.65;;
21681;SDS011;11002;48.256;10.084;2023-02-21T05:59:56;12.73;;;8.55;;
21681;SDS011;11002;48.256;10.084;2023-02-21T06:02:23;13.23;;;7.50;;
21681;SDS011;11002;48.256;10.084;2023-02-21T06:04:51;11.07;;;7.85;;
21681;SDS011;11002;48.256;10.084;2023-02-21T06:07:18;14.93;;;6.78;;
21681;SDS011;11002;48.256;10.084;2023-02-21T06:09:47;12.10;;;7.03;;
21681;SDS011;11002;48.256;10.084;2023-02-21T06:12:14;12.00;;;6.53;;
21681;SDS011;11002;48.256;10.084;2023-02-21T06:14:41;12.55;;;8.20;;
21681;SDS011;11002;48.256;10.084;2023-02-21T06:17:09;12.40;;;7.32;;
21681;SDS011;11002;48.256;10.084;2023-02-21T06:19:37;19.42;;;10.60;;
21681;SDS011;11002;48.256;10.084;2023-02-21T06:22:04;14.02;;;8.52;;
21681;SDS011;11002;48.256;10.084;2023-02-21T06:24:31;12.68;;;8.10;;
21681;SDS011;11002;48.256;10.084;2023-02-21T06:27:00;13.48;;;7.70;;
21681;SDS011;11002;48.256;10.084;2023-02-21T06:29:27;12.80;;;8.68;;
21681;SDS011;11002;48.256;10.084;2023-02-21T06:31:55;10.60;;;7.65;;
21681;SDS011;11002;48.256;10.084;2023-02-21T06:34:23;22.15;;;14.02;;
21681;SDS011;11002;48.256;10.084;2023-02-21T06:36:50;20.95;;;13.75;;
21681;SDS011;11002;48.256;10.084;2023-02-21T06:39:18;18.33;;;13.55;;
21681;SDS011;11002;48.256;10.084;2023-02-21T06:41:45;17.67;;;10.75;;
21681;SDS011;11002;48.256;10.084;2023-02-21T06:44:16;16.13;;;12.52;;
21681;SDS011;11002;48.256;10.084;2023-02-21T06:46:43;16.80;;;11.50;;
21681;SDS011;11002;48.256;10.084;2023-02-21T06:49:11;13.75;;;8.60;;
21681;SDS011;11002;48.256;10.084;2023-02-21T06:51:39;15.70;;;8.88;;
21681;SDS011;11002;48.256;10.084;2023-02-21T06:54:07;17.92;;;8.18;;
21681;SDS011;11002;48.256;10.084;2023-02-21T06:56:35;12.10;;;7.45;;
21681;SDS011;11002;48.256;10.084;2023-02-21T06:59:02;11.10;;;8.02;;
21681;SDS011;11002;48.256;10.084;2023-02-21T07:01:32;12.13;;;8.23;;
21681;SDS011;11002;48.256;10.084;2023-02-21T07:03:59;12.60;;;8.52;;
21681;SDS011;11002;48.256;10.084;2023-02-21T07:06:26;13.65;;;8.40;;
21681;SDS011;11002;48.256;10.084;2023-02-21T07:08:55;15.00;;;8.07;;
21681;SDS011;11002;48.256;10.084;2023-02-21T07:11:23;14.40;;;9.52;;
21681;SDS011;11002;48.256;10.084;2023-02-21T07:13:50;13.93;;;8.30;;
21681;SDS011;11002;48.256;10.084;2023-02-21T07:16:18;15.13;;;8.75;;
21681;SDS011;11002;48.256;10.084;2023-02-21T07:18:47;14.85;;;8.40;;
21681;SDS011;11002;48.256;10.084;2023-02-21T07:21:15;12.43;;;8.20;;
21681;SDS011;11002;48.256;10.084;2023-02-21T07:23:44;15.73;;;7.97;;
21681;SDS011;11002;48.256;10.084;2023-02-21T07:26:12;11.45;;;7.30;;
21681;SDS011;11002;48.256;10.084;2023-02-21T07:28:40;12.48;;;7.95;;
21681;SDS011;11002;48.256;10.084;2023-02-21T07:31:08;12.57;;;8.00;;
21681;SDS011;11002;48.256;10.084;2023-02-21T07:33:36;13.27;;;7.35;;
21681;SDS011;11002;48.256;10.084;2023-02-21T07:36:05;10.02;;;7.28;;
21681;SDS011;11002;48.256;10.084;2023-02-21T07:38:33;11.13;;;6.68;;
21681;SDS011;11002;48.256;10.084;2023-02-21T07:41:01;9.57;;;6.35;;
21681;SDS011;11002;48.256;10.084;2023-02-21T07:43:30;11.30;;;5.75;;
21681;SDS011;11002;48.256;10.084;2023-02-21T07:45:58;10.88;;;5.80;;
21681;SDS011;11002;48.256;10.084;2023-02-21T07:48:26;8.85;;;6.28;;
21681;SDS011;11002;48.256;10.084;2023-02-21T07:50:53;9.05;;;5.53;;
21681;SDS011;11002;48.256;10.084;2023-02-21T07:53:22;8.65;;;5.22;;
21681;SDS011;11002;48.256;10.084;2023-02-21T07:55:49;8.25;;;5.00;;
21681;SDS011;11002;48.256;10.084;2023-02-21T07:58:16;9.75;;;4.93;;
21681;SDS011;11002;48.256;10.084;2023-02-21T08:00:44;6.40;;;5.03;;
21681;SDS011;11002;48.256;10.084;2023-02-21T08:03:11;9.27;;;4.75;;
21681;SDS011;11002;48.256;10.084;2023-02-21T08:05:39;8.73;;;5.03;;
21681;SDS011;11002;48.256;10.084;2023-02-21T08:08:07;18.98;;;8.40;;
21681;SDS011;11002;48.256;10.084;2023-02-21T08:10:36;9.02;;;6.22;;
21681;SDS011;11002;48.256;10.084;2023-02-21T08:13:04;6.22;;;4.20;;
21681;SDS011;11002;48.256;10.084;2023-02-21T08:15:31;9.25;;;5.55;;
21681;SDS011;11002;48.256;10.084;2023-02-21T08:17:58;8.48;;;6.60;;
21681;SDS011;11002;48.256;10.084;2023-02-21T08:20:26;7.70;;;5.20;;
21681;SDS011;11002;48.256;10.084;2023-02-21T08:22:53;7.32;;;5.75;;
21681;SDS011;11002;48.256;10.084;2023-02-21T08:25:21;8.82;;;5.18;;
21681;SDS011;11002;48.256;10.084;2023-02-21T08:27:50;5.40;;;4.40;;
21681;SDS011;11002;48.256;10.084;2023-02-21T08:30:19;6.13;;;4.68;;
21681;SDS011;11002;48.256;10.084;2023-02-21T08:32:46;10.32;;;5.65;;
21681;SDS011;11002;48.256;10.084;2023-02-21T08:35:16;6.90;;;4.03;;
21681;SDS011;11002;48.256;10.084;2023-02-21T08:37:44;5.75;;;4.25;;
21681;SDS011;11002;48.256;10.084;2023-02-21T08:40:11;9.55;;;4.57;;
21681;SDS011;11002;48.256;10.084;2023-02-21T08:42:39;4.88;;;3.42;;
21681;SDS011;11002;48.256;10.084;2023-02-21T08:45:09;5.72;;;3.65;;
21681;SDS011;11002;48.256;10.084;2023-02-21T08:47:41;6.70;;;4.30;;
21681;SDS011;11002;48.256;10.084;2023-02-21T08:50:09;8.10;;;3.88;;
21681;SDS011;11002;48.256;10.084;2023-02-21T08:52:37;4.68;;;3.75;;
21681;SDS011;11002;48.256;10.084;2023-02-21T08:55:05;4.28;;;3.72;;
21681;SDS011;11002;48.256;10.084;2023-02-21T08:57:32;6.55;;;3.72;;
21681;SDS011;11002;48.256;10.084;2023-02-21T09:00:00;4.65;;;3.80;;
21681;SDS011;11002;48.256;10.084;2023-02-21T09:02:31;5.28;;;3.90;;
21681;SDS011;11002;48.256;10.084;2023-02-21T09:04:58;6.47;;;4.03;;
21681;SDS011;11002;48.256;10.084;2023-02-21T09:07:25;6.80;;;4.00;;
21681;SDS011;11002;48.256;10.084;2023-02-21T09:09:55;4.60;;;3.63;;
21681;SDS011;11002;48.256;10.084;2023-02-21T09:12:22;8.63;;;4.45;;
21681;SDS011;11002;48.256;10.084;2023-02-21T09:14:50;6.90;;;4.10;;
21681;SDS011;11002;48.256;10.084;2023-02-21T09:17:17;6.38;;;4.32;;
21681;SDS011;11002;48.256;10.084;2023-02-21T09:19:46;7.43;;;3.80;;
21681;SDS011;11002;48.256;10.084;2023-02-21T09:22:13;4.65;;;3.58;;
21681;SDS011;11002;48.256;10.084;2023-02-21T09:24:41;5.30;;;4.15;;
21681;SDS011;11002;48.256;10.084;2023-02-21T09:27:08;6.85;;;3.65;;
21681;SDS011;11002;48.256;10.084;2023-02-21T09:29:36;8.52;;;4.00;;
21681;SDS011;11002;48.256;10.084;2023-02-21T09:32:04;7.57;;;3.70;;
21681;SDS011;11002;48.256;10.084;2023-02-21T09:34:31;5.65;;;3.78;;
21681;SDS011;11002;48.256;10.084;2023-02-21T09:37:02;6.72;;;3.83;;
21681;SDS011;11002;48.256;10.084;2023-02-21T09:39:30;4.68;;;3.80;;
21681;SDS011;11002;48.256;10.084;2023-02-21T09:41:57;7.03;;;3.47;;
21681;SDS011;11002;48.256;10.084;2023-02-21T09:44:25;5.47;;;3.80;;
21681;SDS011;11002;48.256;10.084;2023-02-21T09:46:55;4.72;;;3.20;;
21681;SDS011;11002;48.256;10.084;2023-02-21T09:49:25;8.25;;;3.67;;
21681;SDS011;11002;48.256;10.084;2023-02-21T09:51:55;5.35;;;3.38;;
21681;SDS011;11002;48.256;10.084;2023-02-21T09:54:27;3.80;;;3.17;;
21681;SDS011;11002;48.256;10.084;2023-02-21T09:56:59;5.07;;;3.35;;
21681;SDS011;11002;48.256;10.084;2023-02-21T09:59:27;3.90;;;3.50;;
21681;SDS011;11002;48.256;10.084;2023-02-21T10:01:58;4.53;;;3.50;;
21681;SDS011;11002;48.256;10.084;2023-02-21T10:04:37;4.95;;;3.65;;
21681;SDS011;11002;48.256;10.084;2023-02-21T10:07:21;4.60;;;3.38;;
21681;SDS011;11002;48.256;10.084;2023-02-21T10:09:59;8.32;;;3.38;;
21681;SDS011;11002;48.256;10.084;2023-02-21T10:12:33;5.35;;;3.55;;
21681;SDS011;11002;48.256;10.084;2023-02-21T10:15:21;4.95;;;2.78;;
21681;SDS011;11002;48.256;10.084;2023-02-21T10:18:00;5.68;;;3.22;;
21681;SDS011;11002;48.256;10.084;2023-02-21T10:20:33;5.70;;;3.97;;
21681;SDS011;11002;48.256;10.084;2023-02-21T10:23:09;4.82;;;3.58;;
21681;SDS011;11002;48.256;10.084;2023-02-21T10:25:43;3.10;;;2.72;;
21681;SDS011;11002;48.256;10.084;2023-02-21T10:28:13;6.88;;;3.20;;
21681;SDS011;11002;48.256;10.084;2023-02-21T10:30:44;5.80;;;3.00;;
21681;SDS011;11002;48.256;10.084;2023-02-21T10:33:13;6.07;;;2.90;;
21681;SDS011;11002;48.256;10.084;2023-02-21T10:35:40;5.03;;;3.25;;
21681;SDS011;11002;48.256;10.084;2023-02-21T10:38:08;7.47;;;3.10;;
21681;SDS011;11002;48.256;10.084;2023-02-21T10:40:39;4.75;;;3.08;;
21681;SDS011;11002;48.256;10.084;2023-02-21T10:43:10;4.32;;;2.72;;
21681;SDS011;11002;48.256;10.084;2023-02-21T10:45:44;4.15;;;2.92;;
21681;SDS011;11002;48.256;10.084;2023-02-21T10:48:14;6.60;;;3.20;;
21681;SDS011;11002;48.256;10.084;2023-02-21T10:50:49;4.85;;;2.55;;
21681;SDS011;11002;48.256;10.084;2023-02-21T10:53:23;3.17;;;2.80;;
21681;SDS011;11002;48.256;10.084;2023-02-21T10:58:52;4.40;;;2.65;;
21681;SDS011;11002;48.256;10.084;2023-02-21T11:01:31;3.40;;;2.35;;
21681;SDS011;11002;48.256;10.084;2023-02-21T11:04:03;3.40;;;3.10;;
21681;SDS011;11002;48.256;10.084;2023-02-21T11:06:32;3.38;;;2.17;;
21681;SDS011;11002;48.256;10.084;2023-02-21T11:09:22;3.00;;;2.53;;
21681;SDS011;11002;48.256;10.084;2023-02-21T11:12:01;4.85;;;2.40;;
21681;SDS011;11002;48.256;10.084;2023-02-21T11:14:31;3.95;;;2.40;;
21681;SDS011;11002;48.256;10.084;2023-02-21T11:19:49;4.47;;;2.28;;
21681;SDS011;11002;48.256;10.084;2023-02-21T11:22:19;6.63;;;2.55;;
21681;SDS011;11002;48.256;10.084;2023-02-21T11:24:59;2.78;;;2.53;;
21681;SDS011;11002;48.256;10.084;2023-02-21T11:27:31;5.28;;;2.67;;
21681;SDS011;11002;48.256;10.084;2023-02-21T11:30:02;6.15;;;2.40;;
21681;SDS011;11002;48.256;10.084;2023-02-21T11:32:36;3.88;;;2.35;;
21681;SDS011;11002;48.256;10.084;2023-02-21T11:35:06;2.53;;;2.00;;
21681;SDS011;11002;48.256;10.084;2023-02-21T11:37:47;3.35;;;2.22;;
21681;SDS011;11002;48.256;10.084;2023-02-21T11:40:24;2.92;;;2.17;;
21681;SDS011;11002;48.256;10.084;2023-02-21T11:43:11;2.20;;;2.00;;
21681;SDS011;11002;48.256;10.084;2023-02-21T11:45:47;5.85;;;1.77;;
21681;SDS011;11002;48.256;10.084;2023-02-21T11:48:36;2.08;;;1.85;;
21681;SDS011;11002;48.256;10.084;2023-02-21T11:51:12;2.72;;;1.83;;
21681;SDS011;11002;48.256;10.084;2023-02-21T11:53:49;3.10;;;1.50;;
21681;SDS011;11002;48.256;10.084;2023-02-21T11:56:18;5.97;;;2.00;;
21681;SDS011;11002;48.256;10.084;2023-02-21T11:58:55;3.38;;;2.38;;
21681;SDS011;11002;48.256;10.084;2023-02-21T12:01:30;2.92;;;2.30;;
21681;SDS011;11002;48.256;10.084;2023-02-21T12:07:15;5.03;;;2.38;;
21681;SDS011;11002;48.256;10.084;2023-02-21T12:09:48;6.00;;;2.38;;
21681;SDS011;11002;48.256;10.084;2023-02-21T12:12:24;3.47;;;2.20;;
21681;SDS011;11002;48.256;10.084;2023-02-21T12:15:02;3.20;;;2.25;;
21681;SDS011;11002;48.256;10.084;2023-02-21T12:17:46;2.60;;;2.20;;
21681;SDS011;11002;48.256;10.084;2023-02-21T12:20:25;2.60;;;2.40;;
21681;SDS011;11002;48.256;10.084;2023-02-21T12:23:05;7.70;;;2.30;;
21681;SDS011;11002;48.256;10.084;2023-02-21T12:25:42;5.60;;;2.58;;
21681;SDS011;11002;48.256;10.084;2023-02-21T12:28:18;4.03;;;2.50;;
21681;SDS011;11002;48.256;10.084;2023-02-21T12:30:58;3.85;;;2.45;;
21681;SDS011;11002;48.256;10.084;2023-02-21T12:33:41;3.50;;;2.22;;
21681;SDS011;11002;48.256;10.084;2023-02-21T12:36:17;2.63;;;2.08;;
21681;SDS011;11002;48.256;10.084;2023-02-21T12:39:02;3.35;;;2.15;;
21681;SDS011;11002;48.256;10.084;2023-02-21T12:41:41;4.00;;;1.95;;
21681;SDS011;11002;48.256;10.084;2023-02-21T12:44:30;2.60;;;2.00;;
21681;SDS011;11002;48.256;10.084;2023-02-21T12:47:05;3.53;;;2.13;;
21681;SDS011;11002;48.256;10.084;2023-02-21T12:49:41;3.17;;;2.22;;
21681;SDS011;11002;48.256;10.084;2023-02-21T12:52:13;4.07;;;2.10;;
21681;SDS011;11002;48.256;10.084;2023-02-21T12:54:44;2.78;;;1.83;;
21681;SDS011;11002;48.256;10.084;2023-02-21T12:57:18;2.10;;;1.80;;
21681;SDS011;11002;48.256;10.084;2023-02-21T13:02:35;1.15;;;1.00;;
21681;SDS011;11002;48.256;10.084;2023-02-21T13:05:10;3.13;;;1.70;;
21681;SDS011;11002;48.256;10.084;2023-02-21T13:07:42;2.38;;;1.73;;
21681;SDS011;11002;48.256;10.084;2023-02-21T13:10:18;2.65;;;1.85;;
21681;SDS011;11002;48.256;10.084;2023-02-21T13:12:49;2.88;;;2.00;;
21681;SDS011;11002;48.256;10.084;2023-02-21T13:15:23;2.28;;;2.05;;
21681;SDS011;11002;48.256;10.084;2023-02-21T13:17:56;1.75;;;1.63;;
21681;SDS011;11002;48.256;10.084;2023-02-21T13:20:28;2.78;;;2.00;;
21681;SDS011;11002;48.256;10.084;2023-02-21T13:26:22;5.38;;;1.60;;
21681;SDS011;11002;48.256;10.084;2023-02-21T13:29:02;2.13;;;1.67;;
21681;SDS011;11002;48.256;10.084;2023-02-21T13:31:36;6.30;;;1.70;;
21681;SDS011;11002;48.256;10.084;2023-02-21T13:34:12;3.88;;;1.77;;
21681;SDS011;11002;48.256;10.084;2023-02-21T13:36:45;2.55;;;1.48;;
21681;SDS011;11002;48.256;10.084;2023-02-21T13:39:14;4.70;;;1.80;;
21681;SDS011;11002;48.256;10.084;2023-02-21T13:41:46;2.72;;;1.95;;
21681;SDS011;11002;48.256;10.084;2023-02-21T13:44:16;3.58;;;1.40;;
21681;SDS011;11002;48.256;10.084;2023-02-21T13:55:28;1.70;;;1.60;;
21681;SDS011;11002;48.256;10.084;2023-02-21T14:01:16;3.60;;;1.48;;
21681;SDS011;11002;48.256;10.084;2023-02-21T14:03:47;3.72;;;1.40;;
21681;SDS011;11002;48.256;10.084;2023-02-21T14:06:21;3.35;;;1.33;;
21681;SDS011;11002;48.256;10.084;2023-02-21T14:08:57;1.52;;;1.20;;
21681;SDS011;11002;48.256;10.084;2023-02-21T14:11:29;2.65;;;1.27;;
21681;SDS011;11002;48.256;10.084;2023-02-21T14:14:03;3.60;;;1.58;;
21681;SDS011;11002;48.256;10.084;2023-02-21T14:16:45;3.78;;;1.85;;
21681;SDS011;11002;48.256;10.084;2023-02-21T14:19:18;2.05;;;1.67;;
21681;SDS011;11002;48.256;10.084;2023-02-21T14:21:54;3.30;;;1.48;;
21681;SDS011;11002;48.256;10.084;2023-02-21T14:24:27;2.85;;;1.80;;
21681;SDS011;11002;48.256;10.084;2023-02-21T14:27:01;1.60;;;1.42;;
21681;SDS011;11002;48.256;10.084;2023-02-21T14:29:33;3.97;;;1.65;;
21681;SDS011;11002;48.256;10.084;2023-02-21T14:32:22;2.08;;;1.75;;
21681;SDS011;11002;48.256;10.084;2023-02-21T14:34:59;7.22;;;1.63;;
21681;SDS011;11002;48.256;10.084;2023-02-21T14:37:31;1.85;;;1.33;;
21681;SDS011;11002;48.256;10.084;2023-02-21T14:40:02;4.38;;;2.10;;
21681;SDS011;11002;48.256;10.084;2023-02-21T14:42:45;4.28;;;1.42;;
21681;SDS011;11002;48.256;10.084;2023-02-21T14:45:31;2.67;;;1.70;;
21681;SDS011;11002;48.256;10.084;2023-02-21T14:48:15;2.17;;;1.60;;
21681;SDS011;11002;48.256;10.084;2023-02-21T14:54:05;2.13;;;1.65;;
21681;SDS011;11002;48.256;10.084;2023-02-21T14:57:09;2.30;;;1.13;;
21681;SDS011;11002;48.256;10.084;2023-02-21T14:59:58;5.80;;;1.38;;
21681;SDS011;11002;48.256;10.084;2023-02-21T15:02:39;1.85;;;1.48;;
21681;SDS011;11002;48.256;10.084;2023-02-21T15:05:13;2.65;;;1.70;;
21681;SDS011;11002;48.256;10.084;2023-02-21T15:07:48;3.70;;;2.10;;
21681;SDS011;11002;48.256;10.084;2023-02-21T15:10:23;3.90;;;1.92;;
21681;SDS011;11002;48.256;10.084;2023-02-21T15:12:52;3.63;;;1.80;;
21681;SDS011;11002;48.256;10.084;2023-02-21T15:15:23;1.35;;;1.23;;
21681;SDS011;11002;48.256;10.084;2023-02-21T15:17:57;2.03;;;1.35;;
21681;SDS011;11002;48.256;10.084;2023-02-21T15:20:33;4.90;;;1.90;;
21681;SDS011;11002;48.256;10.084;2023-02-21T15:23:09;3.42;;;1.45;;
21681;SDS011;11002;48.256;10.084;2023-02-21T15:25:40;1.63;;;1.50;;
21681;SDS011;11002;48.256;10.084;2023-02-21T15:28:19;5.25;;;1.50;;
21681;SDS011;11002;48.256;10.084;2023-02-21T15:30:54;2.40;;;1.40;;
21681;SDS011;11002;48.256;10.084;2023-02-21T15:33:25;3.13;;;1.38;;
21681;SDS011;11002;48.256;10.084;2023-02-21T15:35:56;7.88;;;1.48;;
21681;SDS011;11002;48.256;10.084;2023-02-21T15:38:28;3.05;;;1.45;;
21681;SDS011;11002;48.256;10.084;2023-02-21T15:41:01;1.77;;;1.40;;
21681;SDS011;11002;48.256;10.084;2023-02-21T15:43:37;1.30;;;1.20;;
21681;SDS011;11002;48.256;10.084;2023-02-21T15:46:08;2.50;;;1.60;;